sensor_id;sensor_type;location;lat;lon;timestamp;temperature;humidity
52941;DHT22;62001;53.366;6.636;2023-05-07T00:00:37;11.10;99.90
52941;DHT22;62001;53.366;6.636;2023-05-07T00:03:03;11.10;99.90
52941;DHT22;62001;53.366;6.636;2023-05-07T00:05:29;11.00;99.90
52941;DHT22;62001;53.366;6.636;2023-05-07T00:07:55;11.00;99.90
52941;DHT22;62001;53.366;6.636;2023-05-07T00:10:20;11.00;99.90
52941;DHT22;62001;53.366;6.636;2023-05-07T00:12:46;11.00;99.90
52941;DHT22;62001;53.366;6.636;2023-05-07T00:15:12;11.00;99.90
52941;DHT22;62001;53.366;6.636;2023-05-07T00:17:38;11.00;99.90
52941;DHT22;62001;53.366;6.636;2023-05-07T00:20:04;10.90;99.90
52941;DHT22;62001;53.366;6.636;2023-05-07T00:22:31;10.90;99.90
52941;DHT22;62001;53.366;6.636;2023-05-07T00:24:58;10.90;99.90
52941;DHT22;62001;53.366;6.636;2023-05-07T00:27:24;10.90;99.90
52941;DHT22;62001;53.366;6.636;2023-05-07T00:29:50;10.90;99.90
52941;DHT22;62001;53.366;6.636;2023-05-07T00:32:16;10.80;99.90
52941;DHT22;62001;53.366;6.636;2023-05-07T00:34:43;10.80;99.90
52941;DHT22;62001;53.366;6.636;2023-05-07T00:37:09;10.80;99.90
52941;DHT22;62001;53.366;6.636;2023-05-07T00:39:35;10.80;99.90
52941;DHT22;62001;53.366;6.636;2023-05-07T00:42:01;10.90;99.90
52941;DHT22;62001;53.366;6.636;2023-05-07T00:44:28;10.80;99.90
52941;DHT22;62001;53.366;6.636;2023-05-07T00:46:57;10.80;99.90
52941;DHT22;62001;53.366;6.636;2023-05-07T00:49:29;10.80;99.90
52941;DHT22;62001;53.366;6.636;2023-05-07T00:51:57;10.90;99.90
52941;DHT22;62001;53.366;6.636;2023-05-07T00:54:23;10.90;99.90
52941;DHT22;62001;53.366;6.636;2023-05-07T00:56:49;10.90;99.90
52941;DHT22;62001;53.366;6.636;2023-05-07T00:59:15;10.90;99.90
52941;DHT22;62001;53.366;6.636;2023-05-07T01:01:40;10.90;99.90
52941;DHT22;62001;53.366;6.636;2023-05-07T01:04:06;10.90;99.90
52941;DHT22;62001;53.366;6.636;2023-05-07T01:06:33;11.00;99.90
52941;DHT22;62001;53.366;6.636;2023-05-07T01:08:59;11.00;99.90
52941;DHT22;62001;53.366;6.636;2023-05-07T01:11:25;11.00;99.90
52941;DHT22;62001;53.366;6.636;2023-05-07T01:13:52;11.00;99.90
52941;DHT22;62001;53.366;6.636;2023-05-07T01:16:18;11.00;99.90
52941;DHT22;62001;53.366;6.636;2023-05-07T01:18:44;11.00;99.90
52941;DHT22;62001;53.366;6.636;2023-05-07T01:21:15;11.00;99.90
52941;DHT22;62001;53.366;6.636;2023-05-07T01:23:42;11.00;99.90
52941;DHT22;62001;53.366;6.636;2023-05-07T01:26:08;11.00;99.90
52941;DHT22;62001;53.366;6.636;2023-05-07T01:28:34;11.00;99.90
52941;DHT22;62001;53.366;6.636;2023-05-07T01:31:02;11.00;99.90
52941;DHT22;62001;53.366;6.636;2023-05-07T01:33:31;11.00;99.90
52941;DHT22;62001;53.366;6.636;2023-05-07T01:35:59;11.00;99.90
52941;DHT22;62001;53.366;6.636;2023-05-07T01:38:32;11.00;99.90
52941;DHT22;62001;53.366;6.636;2023-05-07T01:40:58;10.90;99.90
52941;DHT22;62001;53.366;6.636;2023-05-07T01:43:24;11.00;99.90
52941;DHT22;62001;53.366;6.636;2023-05-07T01:45:50;10.90;99.90
52941;DHT22;62001;53.366;6.636;2023-05-07T01:48:16;11.00;99.90
52941;DHT22;62001;53.366;6.636;2023-05-07T01:50:43;10.90;99.90
52941;DHT22;62001;53.366;6.636;2023-05-07T01:53:09;10.90;99.90
52941;DHT22;62001;53.366;6.636;2023-05-07T01:55:35;10.80;99.90
52941;DHT22;62001;53.366;6.636;2023-05-07T01:58:03;10.80;99.90
52941;DHT22;62001;53.366;6.636;2023-05-07T02:00:28;10.80;99.90
52941;DHT22;62001;53.366;6.636;2023-05-07T02:02:54;10.80;99.90
52941;DHT22;62001;53.366;6.636;2023-05-07T02:05:20;10.70;99.90
52941;DHT22;62001;53.366;6.636;2023-05-07T02:07:46;10.70;99.90
52941;DHT22;62001;53.366;6.636;2023-05-07T02:10:12;10.70;99.90
52941;DHT22;62001;53.366;6.636;2023-05-07T02:12:38;10.70;99.90
52941;DHT22;62001;53.366;6.636;2023-05-07T02:15:04;10.60;99.90
52941;DHT22;62001;53.366;6.636;2023-05-07T02:17:31;10.60;99.90
52941;DHT22;62001;53.366;6.636;2023-05-07T02:19:58;10.60;99.90
52941;DHT22;62001;53.366;6.636;2023-05-07T02:22:25;10.60;99.90
52941;DHT22;62001;53.366;6.636;2023-05-07T02:24:51;10.50;99.90
52941;DHT22;62001;53.366;6.636;2023-05-07T02:27:17;10.50;99.90
52941;DHT22;62001;53.366;6.636;2023-05-07T02:29:42;10.50;99.90
52941;DHT22;62001;53.366;6.636;2023-05-07T02:32:08;10.50;99.90
52941;DHT22;62001;53.366;6.636;2023-05-07T02:34:34;10.50;99.90
52941;DHT22;62001;53.366;6.636;2023-05-07T02:37:00;10.50;99.90
52941;DHT22;62001;53.366;6.636;2023-05-07T02:39:26;10.50;99.90
52941;DHT22;62001;53.366;6.636;2023-05-07T02:41:51;10.50;99.90
52941;DHT22;62001;53.366;6.636;2023-05-07T02:44:17;10.50;99.90
52941;DHT22;62001;53.366;6.636;2023-05-07T02:46:43;10.50;99.90
52941;DHT22;62001;53.366;6.636;2023-05-07T02:49:09;10.50;99.90
52941;DHT22;62001;53.366;6.636;2023-05-07T02:51:35;10.40;99.90
52941;DHT22;62001;53.366;6.636;2023-05-07T02:54:00;10.40;99.90
52941;DHT22;62001;53.366;6.636;2023-05-07T02:56:26;10.40;99.90
52941;DHT22;62001;53.366;6.636;2023-05-07T02:58:52;10.40;99.90
52941;DHT22;62001;53.366;6.636;2023-05-07T03:01:18;10.40;99.90
52941;DHT22;62001;53.366;6.636;2023-05-07T03:03:44;10.40;99.90
52941;DHT22;62001;53.366;6.636;2023-05-07T03:06:10;10.40;99.90
52941;DHT22;62001;53.366;6.636;2023-05-07T03:08:36;10.40;99.90
52941;DHT22;62001;53.366;6.636;2023-05-07T03:11:02;10.40;99.90
52941;DHT22;62001;53.366;6.636;2023-05-07T03:13:28;10.40;99.90
52941;DHT22;62001;53.366;6.636;2023-05-07T03:15:54;10.40;99.90
52941;DHT22;62001;53.366;6.636;2023-05-07T03:18:19;10.40;99.90
52941;DHT22;62001;53.366;6.636;2023-05-07T03:20:47;10.40;99.90
52941;DHT22;62001;53.366;6.636;2023-05-07T03:23:13;10.40;99.90
52941;DHT22;62001;53.366;6.636;2023-05-07T03:25:40;10.40;99.90
52941;DHT22;62001;53.366;6.636;2023-05-07T03:28:06;10.40;99.90
52941;DHT22;62001;53.366;6.636;2023-05-07T03:30:32;10.40;99.90
52941;DHT22;62001;53.366;6.636;2023-05-07T03:32:58;10.40;99.90
52941;DHT22;62001;53.366;6.636;2023-05-07T03:35:24;10.40;99.90
52941;DHT22;62001;53.366;6.636;2023-05-07T03:37:49;10.40;99.90
52941;DHT22;62001;53.366;6.636;2023-05-07T03:40:16;10.40;99.90
52941;DHT22;62001;53.366;6.636;2023-05-07T03:42:42;10.40;99.90
52941;DHT22;62001;53.366;6.636;2023-05-07T03:45:08;10.30;99.90
52941;DHT22;62001;53.366;6.636;2023-05-07T03:47:34;10.30;99.90
52941;DHT22;62001;53.366;6.636;2023-05-07T03:49:59;10.20;99.90
52941;DHT22;62001;53.366;6.636;2023-05-07T03:52:25;10.20;99.90
52941;DHT22;62001;53.366;6.636;2023-05-07T03:54:52;10.20;99.90
52941;DHT22;62001;53.366;6.636;2023-05-07T03:57:19;10.20;99.90
52941;DHT22;62001;53.366;6.636;2023-05-07T03:59:45;10.20;99.90
52941;DHT22;62001;53.366;6.636;2023-05-07T04:02:11;10.20;99.90
52941;DHT22;62001;53.366;6.636;2023-05-07T04:04:37;10.20;99.90
52941;DHT22;62001;53.366;6.636;2023-05-07T04:07:03;10.20;99.90
52941;DHT22;62001;53.366;6.636;2023-05-07T04:09:28;10.20;99.90
52941;DHT22;62001;53.366;6.636;2023-05-07T04:11:54;10.20;99.90
52941;DHT22;62001;53.366;6.636;2023-05-07T04:14:20;10.20;99.90
52941;DHT22;62001;53.366;6.636;2023-05-07T04:16:46;10.10;99.90
52941;DHT22;62001;53.366;6.636;2023-05-07T04:19:11;10.20;99.90
52941;DHT22;62001;53.366;6.636;2023-05-07T04:21:37;10.10;99.90
52941;DHT22;62001;53.366;6.636;2023-05-07T04:24:04;10.10;99.90
52941;DHT22;62001;53.366;6.636;2023-05-07T04:26:30;10.10;99.90
52941;DHT22;62001;53.366;6.636;2023-05-07T04:28:55;10.10;99.90
52941;DHT22;62001;53.366;6.636;2023-05-07T04:31:23;10.10;99.90
52941;DHT22;62001;53.366;6.636;2023-05-07T04:33:48;10.00;99.90
52941;DHT22;62001;53.366;6.636;2023-05-07T04:36:14;10.00;99.90
52941;DHT22;62001;53.366;6.636;2023-05-07T04:38:40;10.00;99.90
52941;DHT22;62001;53.366;6.636;2023-05-07T04:41:08;10.00;99.90
52941;DHT22;62001;53.366;6.636;2023-05-07T04:43:34;10.00;99.90
52941;DHT22;62001;53.366;6.636;2023-05-07T04:46:00;10.00;99.90
52941;DHT22;62001;53.366;6.636;2023-05-07T04:48:26;10.00;99.90
52941;DHT22;62001;53.366;6.636;2023-05-07T04:50:52;10.00;99.90
52941;DHT22;62001;53.366;6.636;2023-05-07T04:53:19;10.00;99.90
52941;DHT22;62001;53.366;6.636;2023-05-07T04:55:45;10.00;99.90
52941;DHT22;62001;53.366;6.636;2023-05-07T04:58:11;10.00;99.90
52941;DHT22;62001;53.366;6.636;2023-05-07T05:00:38;9.90;99.90
52941;DHT22;62001;53.366;6.636;2023-05-07T05:03:06;9.90;99.90
52941;DHT22;62001;53.366;6.636;2023-05-07T05:05:32;9.90;99.90
52941;DHT22;62001;53.366;6.636;2023-05-07T05:07:58;9.90;99.90
52941;DHT22;62001;53.366;6.636;2023-05-07T05:10:24;9.90;99.90
52941;DHT22;62001;53.366;6.636;2023-05-07T05:12:50;9.90;99.90
52941;DHT22;62001;53.366;6.636;2023-05-07T05:15:16;9.90;99.90
52941;DHT22;62001;53.366;6.636;2023-05-07T05:17:42;9.90;99.90
52941;DHT22;62001;53.366;6.636;2023-05-07T05:20:08;9.90;99.90
52941;DHT22;62001;53.366;6.636;2023-05-07T05:22:36;9.90;99.90
52941;DHT22;62001;53.366;6.636;2023-05-07T05:25:02;9.90;99.90
52941;DHT22;62001;53.366;6.636;2023-05-07T05:27:28;9.90;99.90
52941;DHT22;62001;53.366;6.636;2023-05-07T05:29:54;9.90;99.90
52941;DHT22;62001;53.366;6.636;2023-05-07T05:32:20;9.90;99.90
52941;DHT22;62001;53.366;6.636;2023-05-07T05:34:46;9.90;99.90
52941;DHT22;62001;53.366;6.636;2023-05-07T05:37:11;9.90;99.90
52941;DHT22;62001;53.366;6.636;2023-05-07T05:39:38;9.90;99.90
52941;DHT22;62001;53.366;6.636;2023-05-07T05:42:04;9.90;99.90
52941;DHT22;62001;53.366;6.636;2023-05-07T05:44:29;9.90;99.90
52941;DHT22;62001;53.366;6.636;2023-05-07T05:46:55;10.00;99.90
52941;DHT22;62001;53.366;6.636;2023-05-07T05:49:23;9.90;99.90
52941;DHT22;62001;53.366;6.636;2023-05-07T05:51:48;9.90;99.90
52941;DHT22;62001;53.366;6.636;2023-05-07T05:54:14;9.90;99.90
52941;DHT22;62001;53.366;6.636;2023-05-07T05:56:41;9.90;99.90
52941;DHT22;62001;53.366;6.636;2023-05-07T05:59:07;9.90;99.90
52941;DHT22;62001;53.366;6.636;2023-05-07T06:01:33;9.90;99.90
52941;DHT22;62001;53.366;6.636;2023-05-07T06:03:59;9.90;99.90
52941;DHT22;62001;53.366;6.636;2023-05-07T06:06:25;9.90;99.90
52941;DHT22;62001;53.366;6.636;2023-05-07T06:08:51;9.90;99.90
52941;DHT22;62001;53.366;6.636;2023-05-07T06:11:17;9.90;99.90
52941;DHT22;62001;53.366;6.636;2023-05-07T06:13:43;10.00;99.90
52941;DHT22;62001;53.366;6.636;2023-05-07T06:16:08;10.00;99.90
52941;DHT22;62001;53.366;6.636;2023-05-07T06:18:34;10.00;99.90
52941;DHT22;62001;53.366;6.636;2023-05-07T06:21:01;10.00;99.90
52941;DHT22;62001;53.366;6.636;2023-05-07T06:23:27;10.00;99.90
52941;DHT22;62001;53.366;6.636;2023-05-07T06:25:53;10.00;99.90
52941;DHT22;62001;53.366;6.636;2023-05-07T06:28:19;10.00;99.90
52941;DHT22;62001;53.366;6.636;2023-05-07T06:30:45;10.00;99.90
52941;DHT22;62001;53.366;6.636;2023-05-07T06:33:11;10.00;99.90
52941;DHT22;62001;53.366;6.636;2023-05-07T06:35:36;10.00;99.90
52941;DHT22;62001;53.366;6.636;2023-05-07T06:38:02;10.00;99.90
52941;DHT22;62001;53.366;6.636;2023-05-07T06:40:28;10.00;99.90
52941;DHT22;62001;53.366;6.636;2023-05-07T06:42:54;10.00;99.90
52941;DHT22;62001;53.366;6.636;2023-05-07T06:45:20;10.00;99.90
52941;DHT22;62001;53.366;6.636;2023-05-07T06:47:46;10.10;99.90
52941;DHT22;62001;53.366;6.636;2023-05-07T06:50:12;10.10;99.90
52941;DHT22;62001;53.366;6.636;2023-05-07T06:52:38;10.10;99.90
52941;DHT22;62001;53.366;6.636;2023-05-07T06:55:04;10.10;99.90
52941;DHT22;62001;53.366;6.636;2023-05-07T06:57:30;10.20;99.90
52941;DHT22;62001;53.366;6.636;2023-05-07T06:59:56;10.20;99.90
52941;DHT22;62001;53.366;6.636;2023-05-07T07:02:22;10.20;99.90
52941;DHT22;62001;53.366;6.636;2023-05-07T07:04:47;10.20;99.90
52941;DHT22;62001;53.366;6.636;2023-05-07T07:07:13;10.30;99.90
52941;DHT22;62001;53.366;6.636;2023-05-07T07:09:40;10.30;99.90
52941;DHT22;62001;53.366;6.636;2023-05-07T07:12:06;10.30;99.90
52941;DHT22;62001;53.366;6.636;2023-05-07T07:14:31;10.30;99.90
52941;DHT22;62001;53.366;6.636;2023-05-07T07:16:57;10.30;99.90
52941;DHT22;62001;53.366;6.636;2023-05-07T07:19:23;10.30;99.90
52941;DHT22;62001;53.366;6.636;2023-05-07T07:21:49;10.40;99.90
52941;DHT22;62001;53.366;6.636;2023-05-07T07:24:15;10.40;99.90
52941;DHT22;62001;53.366;6.636;2023-05-07T07:26:44;10.50;99.90
52941;DHT22;62001;53.366;6.636;2023-05-07T07:29:10;10.50;99.90
52941;DHT22;62001;53.366;6.636;2023-05-07T07:31:36;10.50;99.90
52941;DHT22;62001;53.366;6.636;2023-05-07T07:34:02;10.50;99.90
52941;DHT22;62001;53.366;6.636;2023-05-07T07:36:28;10.60;99.90
52941;DHT22;62001;53.366;6.636;2023-05-07T07:38:54;10.60;99.90
52941;DHT22;62001;53.366;6.636;2023-05-07T07:41:20;10.60;99.90
52941;DHT22;62001;53.366;6.636;2023-05-07T07:43:45;10.60;99.90
52941;DHT22;62001;53.366;6.636;2023-05-07T07:46:12;10.60;99.90
52941;DHT22;62001;53.366;6.636;2023-05-07T07:48:38;10.60;99.90
52941;DHT22;62001;53.366;6.636;2023-05-07T07:51:04;10.60;99.90
52941;DHT22;62001;53.366;6.636;2023-05-07T07:53:30;10.60;99.90
52941;DHT22;62001;53.366;6.636;2023-05-07T07:55:56;10.60;99.90
52941;DHT22;62001;53.366;6.636;2023-05-07T07:58:22;10.60;99.90
52941;DHT22;62001;53.366;6.636;2023-05-07T08:00:48;10.60;99.90
52941;DHT22;62001;53.366;6.636;2023-05-07T08:03:14;10.70;99.90
52941;DHT22;62001;53.366;6.636;2023-05-07T08:05:42;10.70;99.90
52941;DHT22;62001;53.366;6.636;2023-05-07T08:08:08;10.80;99.90
52941;DHT22;62001;53.366;6.636;2023-05-07T08:10:35;10.80;99.90
52941;DHT22;62001;53.366;6.636;2023-05-07T08:13:03;10.80;99.90
52941;DHT22;62001;53.366;6.636;2023-05-07T08:15:29;10.80;99.90
52941;DHT22;62001;53.366;6.636;2023-05-07T08:17:55;10.80;99.90
52941;DHT22;62001;53.366;6.636;2023-05-07T08:20:23;10.80;99.90
52941;DHT22;62001;53.366;6.636;2023-05-07T08:22:49;10.80;99.90
52941;DHT22;62001;53.366;6.636;2023-05-07T08:25:16;10.80;99.90
52941;DHT22;62001;53.366;6.636;2023-05-07T08:27:42;10.90;99.90
52941;DHT22;62001;53.366;6.636;2023-05-07T08:30:10;11.00;99.90
52941;DHT22;62001;53.366;6.636;2023-05-07T08:32:36;11.00;99.90
52941;DHT22;62001;53.366;6.636;2023-05-07T08:35:01;11.10;99.90
52941;DHT22;62001;53.366;6.636;2023-05-07T08:37:28;11.10;99.90
52941;DHT22;62001;53.366;6.636;2023-05-07T08:39:53;11.20;99.90
52941;DHT22;62001;53.366;6.636;2023-05-07T08:42:20;11.30;99.90
52941;DHT22;62001;53.366;6.636;2023-05-07T08:44:50;11.30;99.90
52941;DHT22;62001;53.366;6.636;2023-05-07T08:47:18;11.40;99.90
52941;DHT22;62001;53.366;6.636;2023-05-07T08:49:44;11.40;99.90
52941;DHT22;62001;53.366;6.636;2023-05-07T08:52:12;11.50;99.90
52941;DHT22;62001;53.366;6.636;2023-05-07T08:54:38;11.60;99.90
52941;DHT22;62001;53.366;6.636;2023-05-07T08:57:04;11.70;99.90
52941;DHT22;62001;53.366;6.636;2023-05-07T08:59:30;11.80;99.90
52941;DHT22;62001;53.366;6.636;2023-05-07T09:01:56;11.90;99.90
52941;DHT22;62001;53.366;6.636;2023-05-07T09:04:22;12.10;99.90
52941;DHT22;62001;53.366;6.636;2023-05-07T09:06:47;12.30;99.90
52941;DHT22;62001;53.366;6.636;2023-05-07T09:09:17;12.50;99.90
52941;DHT22;62001;53.366;6.636;2023-05-07T09:11:44;12.60;99.90
52941;DHT22;62001;53.366;6.636;2023-05-07T09:14:10;12.60;99.90
52941;DHT22;62001;53.366;6.636;2023-05-07T09:16:35;12.50;99.90
52941;DHT22;62001;53.366;6.636;2023-05-07T09:19:01;12.50;99.90
52941;DHT22;62001;53.366;6.636;2023-05-07T09:21:27;12.60;99.90
52941;DHT22;62001;53.366;6.636;2023-05-07T09:23:55;12.70;99.90
52941;DHT22;62001;53.366;6.636;2023-05-07T09:26:25;12.80;99.90
52941;DHT22;62001;53.366;6.636;2023-05-07T09:28:51;12.90;99.90
52941;DHT22;62001;53.366;6.636;2023-05-07T09:31:17;13.10;99.90
52941;DHT22;62001;53.366;6.636;2023-05-07T09:33:43;13.30;99.90
52941;DHT22;62001;53.366;6.636;2023-05-07T09:36:10;13.40;99.90
52941;DHT22;62001;53.366;6.636;2023-05-07T09:38:37;13.40;99.90
52941;DHT22;62001;53.366;6.636;2023-05-07T09:43:36;13.50;99.90
52941;DHT22;62001;53.366;6.636;2023-05-07T09:46:27;13.60;99.90
52941;DHT22;62001;53.366;6.636;2023-05-07T09:48:57;13.60;99.90
52941;DHT22;62001;53.366;6.636;2023-05-07T09:51:38;13.60;99.90
52941;DHT22;62001;53.366;6.636;2023-05-07T09:54:06;13.50;99.90
52941;DHT22;62001;53.366;6.636;2023-05-07T09:56:32;13.50;99.90
52941;DHT22;62001;53.366;6.636;2023-05-07T09:59:03;13.50;99.90
52941;DHT22;62001;53.366;6.636;2023-05-07T10:01:31;13.60;99.90
52941;DHT22;62001;53.366;6.636;2023-05-07T10:03:57;13.60;99.90
52941;DHT22;62001;53.366;6.636;2023-05-07T10:06:25;13.80;99.90
52941;DHT22;62001;53.366;6.636;2023-05-07T10:08:53;14.00;99.90
52941;DHT22;62001;53.366;6.636;2023-05-07T10:11:22;14.00;99.90
52941;DHT22;62001;53.366;6.636;2023-05-07T10:13:48;14.00;99.90
52941;DHT22;62001;53.366;6.636;2023-05-07T10:16:14;14.00;99.90
52941;DHT22;62001;53.366;6.636;2023-05-07T10:18:41;14.20;99.90
52941;DHT22;62001;53.366;6.636;2023-05-07T10:21:20;14.30;99.90
52941;DHT22;62001;53.366;6.636;2023-05-07T10:23:51;14.50;99.90
52941;DHT22;62001;53.366;6.636;2023-05-07T10:26:20;14.70;99.90
52941;DHT22;62001;53.366;6.636;2023-05-07T10:28:50;14.90;99.90
52941;DHT22;62001;53.366;6.636;2023-05-07T10:34:10;15.00;99.90
52941;DHT22;62001;53.366;6.636;2023-05-07T10:36:37;15.00;99.90
52941;DHT22;62001;53.366;6.636;2023-05-07T10:39:03;15.00;99.90
52941;DHT22;62001;53.366;6.636;2023-05-07T10:41:32;15.10;99.90
52941;DHT22;62001;53.366;6.636;2023-05-07T10:43:57;15.40;99.90
52941;DHT22;62001;53.366;6.636;2023-05-07T10:46:27;15.50;99.90
52941;DHT22;62001;53.366;6.636;2023-05-07T10:51:34;15.60;99.90
52941;DHT22;62001;53.366;6.636;2023-05-07T10:56:36;15.60;99.90
52941;DHT22;62001;53.366;6.636;2023-05-07T11:01:57;15.50;99.90
52941;DHT22;62001;53.366;6.636;2023-05-07T11:04:24;15.50;99.90
52941;DHT22;62001;53.366;6.636;2023-05-07T11:10:00;15.60;99.90
52941;DHT22;62001;53.366;6.636;2023-05-07T11:15:12;15.50;99.90
52941;DHT22;62001;53.366;6.636;2023-05-07T11:17:55;15.60;99.90
52941;DHT22;62001;53.366;6.636;2023-05-07T11:20:56;15.70;99.90
52941;DHT22;62001;53.366;6.636;2023-05-07T11:26:04;15.60;99.90
52941;DHT22;62001;53.366;6.636;2023-05-07T11:28:31;15.60;99.90
52941;DHT22;62001;53.366;6.636;2023-05-07T11:31:02;15.70;99.90
52941;DHT22;62001;53.366;6.636;2023-05-07T11:33:29;16.00;99.90
52941;DHT22;62001;53.366;6.636;2023-05-07T11:35:56;16.00;99.90
52941;DHT22;62001;53.366;6.636;2023-05-07T11:38:22;15.90;99.90
52941;DHT22;62001;53.366;6.636;2023-05-07T11:40:50;15.90;99.90
52941;DHT22;62001;53.366;6.636;2023-05-07T11:43:16;15.90;99.90
52941;DHT22;62001;53.366;6.636;2023-05-07T11:45:43;15.80;99.90
52941;DHT22;62001;53.366;6.636;2023-05-07T11:48:10;15.90;99.90
52941;DHT22;62001;53.366;6.636;2023-05-07T11:50:35;15.80;99.90
52941;DHT22;62001;53.366;6.636;2023-05-07T11:53:07;15.80;99.90
52941;DHT22;62001;53.366;6.636;2023-05-07T11:55:33;15.90;99.90
52941;DHT22;62001;53.366;6.636;2023-05-07T11:57:59;16.10;99.90
52941;DHT22;62001;53.366;6.636;2023-05-07T12:00:25;16.40;99.90
52941;DHT22;62001;53.366;6.636;2023-05-07T12:02:51;16.70;99.90
52941;DHT22;62001;53.366;6.636;2023-05-07T12:05:17;16.90;99.90
52941;DHT22;62001;53.366;6.636;2023-05-07T12:07:43;16.90;99.90
52941;DHT22;62001;53.366;6.636;2023-05-07T12:10:11;16.80;99.90
52941;DHT22;62001;53.366;6.636;2023-05-07T12:12:41;16.70;99.90
52941;DHT22;62001;53.366;6.636;2023-05-07T12:15:09;16.60;99.90
52941;DHT22;62001;53.366;6.636;2023-05-07T12:17:36;16.60;99.90
52941;DHT22;62001;53.366;6.636;2023-05-07T12:20:02;16.60;99.90
52941;DHT22;62001;53.366;6.636;2023-05-07T12:22:29;16.60;99.90
52941;DHT22;62001;53.366;6.636;2023-05-07T12:24:59;16.70;99.90
52941;DHT22;62001;53.366;6.636;2023-05-07T12:27:25;16.70;99.90
52941;DHT22;62001;53.366;6.636;2023-05-07T12:29:51;16.70;99.90
52941;DHT22;62001;53.366;6.636;2023-05-07T12:32:18;16.80;99.90
52941;DHT22;62001;53.366;6.636;2023-05-07T12:34:45;17.00;99.90
52941;DHT22;62001;53.366;6.636;2023-05-07T12:37:11;16.90;99.90
52941;DHT22;62001;53.366;6.636;2023-05-07T12:39:43;16.90;99.90
52941;DHT22;62001;53.366;6.636;2023-05-07T12:42:23;16.80;99.90
52941;DHT22;62001;53.366;6.636;2023-05-07T12:44:51;16.80;99.90
52941;DHT22;62001;53.366;6.636;2023-05-07T12:47:17;16.90;99.90
52941;DHT22;62001;53.366;6.636;2023-05-07T12:49:43;16.90;99.90
52941;DHT22;62001;53.366;6.636;2023-05-07T12:52:11;16.90;99.90
52941;DHT22;62001;53.366;6.636;2023-05-07T12:54:38;16.70;99.90
52941;DHT22;62001;53.366;6.636;2023-05-07T12:57:10;16.50;99.90
52941;DHT22;62001;53.366;6.636;2023-05-07T12:59:37;16.50;99.90
52941;DHT22;62001;53.366;6.636;2023-05-07T13:02:03;16.70;99.90
52941;DHT22;62001;53.366;6.636;2023-05-07T13:04:29;16.80;99.90
52941;DHT22;62001;53.366;6.636;2023-05-07T13:06:55;17.00;99.90
52941;DHT22;62001;53.366;6.636;2023-05-07T13:09:21;17.20;99.90
52941;DHT22;62001;53.366;6.636;2023-05-07T13:11:47;17.40;99.90
52941;DHT22;62001;53.366;6.636;2023-05-07T13:14:13;17.50;99.90
52941;DHT22;62001;53.366;6.636;2023-05-07T13:16:38;17.50;99.90
52941;DHT22;62001;53.366;6.636;2023-05-07T13:19:04;17.70;99.90
52941;DHT22;62001;53.366;6.636;2023-05-07T13:21:30;17.60;99.90
52941;DHT22;62001;53.366;6.636;2023-05-07T13:23:58;17.60;99.90
52941;DHT22;62001;53.366;6.636;2023-05-07T13:26:24;17.40;99.90
52941;DHT22;62001;53.366;6.636;2023-05-07T13:28:50;17.30;99.90
52941;DHT22;62001;53.366;6.636;2023-05-07T13:31:17;17.20;99.90
52941;DHT22;62001;53.366;6.636;2023-05-07T13:33:43;17.20;99.90
52941;DHT22;62001;53.366;6.636;2023-05-07T13:36:09;17.20;99.90
52941;DHT22;62001;53.366;6.636;2023-05-07T13:38:35;17.20;99.90
52941;DHT22;62001;53.366;6.636;2023-05-07T13:41:01;17.10;99.90
52941;DHT22;62001;53.366;6.636;2023-05-07T13:43:27;17.00;99.90
52941;DHT22;62001;53.366;6.636;2023-05-07T13:45:52;17.00;99.90
52941;DHT22;62001;53.366;6.636;2023-05-07T13:48:18;17.00;99.90
52941;DHT22;62001;53.366;6.636;2023-05-07T13:50:44;17.10;99.90
52941;DHT22;62001;53.366;6.636;2023-05-07T13:53:10;17.30;99.90
52941;DHT22;62001;53.366;6.636;2023-05-07T13:55:36;17.50;99.90
52941;DHT22;62001;53.366;6.636;2023-05-07T13:58:02;17.60;99.90
52941;DHT22;62001;53.366;6.636;2023-05-07T14:00:29;17.80;99.90
52941;DHT22;62001;53.366;6.636;2023-05-07T14:02:55;18.00;99.90
52941;DHT22;62001;53.366;6.636;2023-05-07T14:05:22;18.10;99.90
52941;DHT22;62001;53.366;6.636;2023-05-07T14:07:52;18.10;99.90
52941;DHT22;62001;53.366;6.636;2023-05-07T14:10:19;18.10;99.90
52941;DHT22;62001;53.366;6.636;2023-05-07T14:12:47;18.20;99.90
52941;DHT22;62001;53.366;6.636;2023-05-07T14:15:19;18.10;99.90
52941;DHT22;62001;53.366;6.636;2023-05-07T14:17:49;18.00;99.90
52941;DHT22;62001;53.366;6.636;2023-05-07T14:20:16;17.90;99.90
52941;DHT22;62001;53.366;6.636;2023-05-07T14:22:42;17.90;99.90
52941;DHT22;62001;53.366;6.636;2023-05-07T14:25:08;17.80;99.90
52941;DHT22;62001;53.366;6.636;2023-05-07T14:27:38;17.80;99.90
52941;DHT22;62001;53.366;6.636;2023-05-07T14:30:04;17.80;99.90
52941;DHT22;62001;53.366;6.636;2023-05-07T14:32:31;17.90;99.90
52941;DHT22;62001;53.366;6.636;2023-05-07T14:34:57;17.90;99.90
52941;DHT22;62001;53.366;6.636;2023-05-07T14:37:23;17.90;99.90
52941;DHT22;62001;53.366;6.636;2023-05-07T14:39:49;17.80;99.90
52941;DHT22;62001;53.366;6.636;2023-05-07T14:42:15;17.70;99.90
52941;DHT22;62001;53.366;6.636;2023-05-07T14:44:41;17.70;99.90
52941;DHT22;62001;53.366;6.636;2023-05-07T14:47:07;17.80;99.90
52941;DHT22;62001;53.366;6.636;2023-05-07T14:49:33;17.80;99.90
52941;DHT22;62001;53.366;6.636;2023-05-07T14:51:59;17.80;99.90
52941;DHT22;62001;53.366;6.636;2023-05-07T14:54:26;17.80;99.90
52941;DHT22;62001;53.366;6.636;2023-05-07T14:56:52;17.90;99.90
52941;DHT22;62001;53.366;6.636;2023-05-07T14:59:18;17.90;99.90
52941;DHT22;62001;53.366;6.636;2023-05-07T15:01:47;17.90;99.90
52941;DHT22;62001;53.366;6.636;2023-05-07T15:04:13;17.80;99.90
52941;DHT22;62001;53.366;6.636;2023-05-07T15:06:39;17.90;99.90
52941;DHT22;62001;53.366;6.636;2023-05-07T15:09:05;18.00;99.90
52941;DHT22;62001;53.366;6.636;2023-05-07T15:11:30;18.00;99.90
52941;DHT22;62001;53.366;6.636;2023-05-07T15:13:56;18.10;99.90
52941;DHT22;62001;53.366;6.636;2023-05-07T15:16:22;18.10;99.90
52941;DHT22;62001;53.366;6.636;2023-05-07T15:18:48;18.20;99.90
52941;DHT22;62001;53.366;6.636;2023-05-07T15:21:14;18.10;99.90
52941;DHT22;62001;53.366;6.636;2023-05-07T15:23:40;18.00;99.90
52941;DHT22;62001;53.366;6.636;2023-05-07T15:26:07;18.00;99.90
52941;DHT22;62001;53.366;6.636;2023-05-07T15:28:33;18.00;99.90
52941;DHT22;62001;53.366;6.636;2023-05-07T15:30:59;18.00;99.90
52941;DHT22;62001;53.366;6.636;2023-05-07T15:33:25;17.90;99.90
52941;DHT22;62001;53.366;6.636;2023-05-07T15:35:51;18.00;99.90
52941;DHT22;62001;53.366;6.636;2023-05-07T15:38:17;18.00;99.90
52941;DHT22;62001;53.366;6.636;2023-05-07T15:40:43;18.10;99.90
52941;DHT22;62001;53.366;6.636;2023-05-07T15:43:09;18.20;99.90
52941;DHT22;62001;53.366;6.636;2023-05-07T15:45:39;18.20;99.90
52941;DHT22;62001;53.366;6.636;2023-05-07T15:48:06;18.20;99.90
52941;DHT22;62001;53.366;6.636;2023-05-07T15:50:32;18.20;99.90